createdAt,value
2017-11-16T00:01:33.836Z,12.23
2017-11-16T00:04:01.779Z,11.45
2017-11-16T00:06:29.676Z,12.30
2017-11-16T00:08:57.613Z,12.70
2017-11-16T00:11:25.503Z,11.32
2017-11-16T00:13:53.560Z,12.68
2017-11-16T00:16:21.530Z,12.55
2017-11-16T00:18:49.447Z,12.80
2017-11-16T00:21:17.416Z,12.02
2017-11-16T00:23:45.350Z,11.52
2017-11-16T00:26:13.351Z,11.77
2017-11-16T00:28:41.284Z,11.20
2017-11-16T00:31:09.260Z,13.48
2017-11-16T00:33:37.188Z,12.55
2017-11-16T00:36:05.930Z,12.60
2017-11-16T00:38:33.863Z,12.77
2017-11-16T00:41:01.851Z,11.93
2017-11-16T00:43:29.860Z,12.23
2017-11-16T00:45:57.838Z,10.98
2017-11-16T00:48:25.757Z,13.00
2017-11-16T00:50:53.786Z,10.93
2017-11-16T00:53:21.711Z,10.88
2017-11-16T00:55:49.684Z,12.60
2017-11-16T00:58:17.614Z,10.90
2017-11-16T01:00:46.351Z,11.07
2017-11-16T01:03:14.270Z,10.93
2017-11-16T01:05:42.259Z,13.38
2017-11-16T01:08:10.176Z,11.80
2017-11-16T01:10:38.138Z,10.63
2017-11-16T01:13:11.830Z,9.00
2017-11-16T01:15:39.816Z,10.98
2017-11-16T01:18:07.739Z,10.32
2017-11-16T01:20:35.728Z,9.85
2017-11-16T01:23:03.660Z,10.27
2017-11-16T01:25:32.353Z,10.27
2017-11-16T01:28:00.300Z,9.65
2017-11-16T01:30:28.223Z,10.30
2017-11-16T01:32:56.177Z,9.57
2017-11-16T01:35:24.090Z,9.25
2017-11-16T01:37:52.062Z,10.00
2017-11-16T01:40:19.982Z,10.70
2017-11-16T01:43:00.946Z,12.00
2017-11-16T01:45:28.863Z,9.82
2017-11-16T01:47:56.813Z,8.32
2017-11-16T01:50:24.734Z,11.25
2017-11-16T01:52:52.718Z,10.25
2017-11-16T01:55:21.385Z,9.40
2017-11-16T01:57:49.375Z,9.80
2017-11-16T02:00:18.133Z,10.77
2017-11-16T02:02:46.174Z,9.15
2017-11-16T02:05:14.099Z,11.93
2017-11-16T02:07:42.827Z,9.45
2017-11-16T02:10:10.748Z,10.48
2017-11-16T02:12:38.830Z,10.10
2017-11-16T02:15:07.833Z,9.52
2017-11-16T02:17:37.189Z,10.63
2017-11-16T02:20:06.527Z,9.82
2017-11-16T02:22:34.664Z,8.85
2017-11-16T02:25:02.642Z,10.00
2017-11-16T02:27:30.640Z,10.50
2017-11-16T02:29:58.589Z,10.52
2017-11-16T02:32:26.624Z,9.82
2017-11-16T02:34:54.613Z,9.02
2017-11-16T02:37:22.601Z,10.95
2017-11-16T02:39:50.640Z,9.57
2017-11-16T02:42:18.659Z,9.77
2017-11-16T02:44:46.667Z,10.40
2017-11-16T02:47:14.637Z,10.50
2017-11-16T02:49:42.645Z,11.07
2017-11-16T02:52:14.510Z,10.45
2017-11-16T02:54:42.561Z,9.50
2017-11-16T02:57:10.562Z,9.55
2017-11-16T02:59:38.560Z,11.00
2017-11-16T03:02:06.570Z,11.57
2017-11-16T03:04:34.519Z,9.75
2017-11-16T03:07:02.442Z,10.55
2017-11-16T03:09:30.421Z,10.23
2017-11-16T03:11:58.324Z,11.10
2017-11-16T03:14:26.287Z,10.63
2017-11-16T03:16:54.971Z,11.80
2017-11-16T03:19:22.950Z,11.43
2017-11-16T03:21:51.011Z,10.35
2017-11-16T03:24:19.793Z,13.50
2017-11-16T03:26:48.547Z,13.38
2017-11-16T03:29:16.650Z,12.73
2017-11-16T03:31:44.603Z,12.48
2017-11-16T03:34:12.601Z,13.62
2017-11-16T03:36:40.575Z,12.98
2017-11-16T03:39:09.347Z,13.85
2017-11-16T03:41:37.374Z,13.25
2017-11-16T03:44:05.370Z,12.30
2017-11-16T03:46:33.290Z,13.82
2017-11-16T03:49:01.289Z,13.23
2017-11-16T03:51:29.285Z,12.18
2017-11-16T03:53:57.212Z,13.55
2017-11-16T03:56:25.178Z,13.23
2017-11-16T03:58:53.085Z,12.37
2017-11-16T04:01:21.042Z,12.40
2017-11-16T04:03:48.982Z,11.27
2017-11-16T04:06:16.973Z,12.73
2017-11-16T04:08:45.045Z,12.90
2017-11-16T04:11:13.077Z,12.55
2017-11-16T04:13:41.771Z,13.77
2017-11-16T04:16:10.501Z,14.25
2017-11-16T04:18:38.428Z,15.80
2017-11-16T04:21:06.623Z,13.25
2017-11-16T04:23:34.544Z,13.27
2017-11-16T04:26:02.556Z,13.02
2017-11-16T04:28:30.472Z,13.57
2017-11-16T04:30:58.534Z,12.88
2017-11-16T04:33:26.485Z,14.43
2017-11-16T04:35:54.450Z,13.85
2017-11-16T04:38:22.353Z,15.05
2017-11-16T04:40:50.353Z,14.40
2017-11-16T04:43:32.298Z,13.98
2017-11-16T04:46:00.236Z,15.07
2017-11-16T04:48:28.917Z,14.77
2017-11-16T04:50:56.870Z,14.00
2017-11-16T04:53:24.808Z,11.82
2017-11-16T04:55:52.806Z,12.00
2017-11-16T04:58:20.710Z,12.90
2017-11-16T05:00:48.729Z,13.57
2017-11-16T05:03:16.627Z,13.20
2017-11-16T05:05:44.565Z,13.15
2017-11-16T05:08:12.513Z,13.90
2017-11-16T05:10:40.434Z,13.18
2017-11-16T05:13:12.143Z,13.65
2017-11-16T05:15:44.080Z,14.45
2017-11-16T05:18:14.818Z,13.00
2017-11-16T05:20:44.527Z,15.52
2017-11-16T05:23:16.657Z,12.00
2017-11-16T05:25:50.918Z,12.73
2017-11-16T05:28:26.581Z,15.35
2017-11-16T05:30:56.963Z,17.10
2017-11-16T05:33:28.538Z,13.73
2017-11-16T05:35:59.914Z,13.02
2017-11-16T05:38:33.594Z,12.88
2017-11-16T05:41:03.506Z,12.48
2017-11-16T05:43:36.643Z,13.05
2017-11-16T05:46:12.316Z,14.02
2017-11-16T05:48:44.146Z,13.95
2017-11-16T05:51:12.462Z,13.80
2017-11-16T05:53:47.642Z,15.07
2017-11-16T05:56:21.402Z,15.70
2017-11-16T05:58:56.703Z,14.87
2017-11-16T06:01:30.867Z,14.50
2017-11-16T06:04:05.134Z,13.73
2017-11-16T06:06:40.979Z,13.30
2017-11-16T06:09:13.561Z,13.32
2017-11-16T06:11:48.285Z,13.10
2017-11-16T06:14:22.722Z,13.38
2017-11-16T06:16:59.682Z,13.15
2017-11-16T06:19:30.996Z,11.12
2017-11-16T06:22:03.735Z,11.95
2017-11-16T06:24:37.325Z,11.75
2017-11-16T06:27:13.593Z,12.25
2017-11-16T06:29:47.909Z,12.15
2017-11-16T06:32:23.143Z,10.52
2017-11-16T06:34:57.663Z,12.98
2017-11-16T06:37:32.145Z,10.95
2017-11-16T06:40:09.751Z,11.93
2017-11-16T06:42:41.943Z,12.48
2017-11-16T06:45:14.292Z,12.27
2017-11-16T06:47:45.277Z,12.80
2017-11-16T06:50:14.732Z,12.75
2017-11-16T06:52:44.139Z,14.15
2017-11-16T06:55:13.091Z,12.65
2017-11-16T06:57:40.987Z,12.32
2017-11-16T07:00:08.967Z,13.40
2017-11-16T07:02:36.976Z,12.00
2017-11-16T07:05:04.930Z,12.75
2017-11-16T07:07:32.830Z,14.13
2017-11-16T07:10:00.778Z,13.02
2017-11-16T07:12:28.688Z,14.43
2017-11-16T07:14:56.647Z,14.65
2017-11-16T07:17:24.575Z,12.45
2017-11-16T07:19:52.522Z,14.30
2017-11-16T07:22:20.480Z,14.98
2017-11-16T07:24:48.439Z,15.75
2017-11-16T07:27:16.349Z,14.07
2017-11-16T07:29:45.170Z,14.50
2017-11-16T07:32:13.282Z,13.98
2017-11-16T07:34:41.202Z,16.12
2017-11-16T07:37:09.209Z,14.25
2017-11-16T07:39:37.120Z,12.88
2017-11-16T07:42:05.903Z,13.95
2017-11-16T07:44:33.965Z,14.30
2017-11-16T07:47:01.998Z,14.25
2017-11-16T07:49:30.118Z,14.52
2017-11-16T07:51:58.273Z,14.93
2017-11-16T07:54:26.310Z,15.25
2017-11-16T07:56:54.429Z,15.30
2017-11-16T07:59:22.615Z,14.38
2017-11-16T08:01:50.833Z,14.07
2017-11-16T08:04:18.792Z,13.02
2017-11-16T08:06:46.793Z,13.95
2017-11-16T08:09:14.759Z,14.07
2017-11-16T08:11:42.732Z,13.52
2017-11-16T08:14:10.645Z,12.65
2017-11-16T08:16:38.606Z,13.35
2017-11-16T08:19:06.497Z,12.80
2017-11-16T08:21:34.454Z,14.52
2017-11-16T08:24:02.423Z,13.98
2017-11-16T08:26:30.388Z,12.27
2017-11-16T08:28:58.266Z,11.45
2017-11-16T08:31:26.975Z,12.77
2017-11-16T08:33:54.877Z,11.85
2017-11-16T08:36:22.883Z,12.40
2017-11-16T08:38:50.860Z,11.25
2017-11-16T08:41:18.924Z,11.68
2017-11-16T08:43:46.913Z,12.35
2017-11-16T08:46:14.862Z,11.32
2017-11-16T08:48:42.905Z,13.23
2017-11-16T08:51:10.851Z,11.80
2017-11-16T08:53:42.503Z,12.10
2017-11-16T08:56:10.522Z,11.70
2017-11-16T08:58:38.560Z,11.45
2017-11-16T09:01:06.565Z,11.77
2017-11-16T09:03:34.616Z,12.15
2017-11-16T09:06:02.609Z,11.57
2017-11-16T09:08:30.686Z,10.93
2017-11-16T09:10:58.724Z,11.75
2017-11-16T09:13:26.750Z,10.63
2017-11-16T09:15:54.825Z,10.45
2017-11-16T09:18:23.222Z,10.48
2017-11-16T09:20:51.247Z,9.48
2017-11-16T09:23:19.989Z,9.23
2017-11-16T09:25:54.515Z,9.77
2017-11-16T09:28:22.496Z,9.68
2017-11-16T09:30:52.687Z,8.50
2017-11-16T09:33:21.473Z,12.35
2017-11-16T09:35:49.695Z,9.80
2017-11-16T09:38:17.658Z,11.43
2017-11-16T09:40:45.557Z,9.52
2017-11-16T09:43:13.522Z,9.07
2017-11-16T09:45:41.493Z,10.07
2017-11-16T09:48:09.510Z,8.88
2017-11-16T09:50:37.451Z,10.90
2017-11-16T09:53:09.412Z,11.60
2017-11-16T09:55:37.404Z,9.63
2017-11-16T09:58:06.165Z,10.63
2017-11-16T10:00:34.322Z,9.70
2017-11-16T10:03:02.264Z,9.20
2017-11-16T10:05:30.210Z,9.88
2017-11-16T10:07:58.127Z,9.30
2017-11-16T10:10:26.107Z,9.65
2017-11-16T10:12:54.017Z,10.63
2017-11-16T10:15:22.029Z,9.02
2017-11-16T10:17:49.962Z,10.55
2017-11-16T10:20:17.934Z,10.07
2017-11-16T10:22:45.885Z,9.50
2017-11-16T10:25:16.940Z,9.82
2017-11-16T10:27:45.856Z,9.88
2017-11-16T10:30:16.211Z,12.05
2017-11-16T10:32:44.124Z,10.45
2017-11-16T10:35:12.942Z,7.80
2017-11-16T10:37:40.850Z,8.45
2017-11-16T10:40:08.813Z,7.72
2017-11-16T10:42:36.935Z,7.10
2017-11-16T10:45:05.029Z,8.05
2017-11-16T10:47:32.996Z,9.15
2017-11-16T10:50:01.016Z,9.43
2017-11-16T10:52:29.008Z,9.02
2017-11-16T10:54:57.189Z,8.20
2017-11-16T10:57:25.167Z,8.00
2017-11-16T10:59:53.293Z,8.88
2017-11-16T11:02:21.334Z,9.00
2017-11-16T11:04:49.462Z,8.85
2017-11-16T11:07:18.448Z,8.02
2017-11-16T11:09:46.583Z,8.70
2017-11-16T11:12:15.706Z,8.38
2017-11-16T11:14:44.546Z,8.20
2017-11-16T11:17:12.568Z,7.72
2017-11-16T11:19:41.314Z,7.30
2017-11-16T11:22:09.270Z,7.72
2017-11-16T11:24:37.231Z,8.18
2017-11-16T11:27:05.395Z,9.50
2017-11-16T11:29:33.356Z,9.00
2017-11-16T11:32:02.300Z,9.15
2017-11-16T11:34:30.218Z,9.68
2017-11-16T11:36:58.321Z,9.93
2017-11-16T11:39:26.342Z,8.55
2017-11-16T11:41:54.443Z,8.98
2017-11-16T11:44:22.389Z,8.85
2017-11-16T11:46:50.351Z,9.60
2017-11-16T11:49:18.609Z,8.88
2017-11-16T11:51:46.754Z,8.60
2017-11-16T11:54:14.687Z,8.10
2017-11-16T11:56:43.182Z,8.20
2017-11-16T11:59:11.204Z,8.55
2017-11-16T12:01:39.157Z,8.73
2017-11-16T12:04:07.199Z,9.20
2017-11-16T12:06:35.231Z,9.45
2017-11-16T12:09:03.237Z,10.43
2017-11-16T12:11:31.147Z,9.10
2017-11-16T12:13:59.187Z,9.63
2017-11-16T12:16:27.202Z,8.93
2017-11-16T12:18:55.486Z,8.55
2017-11-16T12:21:23.525Z,9.02
2017-11-16T12:23:52.985Z,8.50
2017-11-16T12:26:21.009Z,9.48
2017-11-16T12:28:49.075Z,8.98
2017-11-16T12:31:17.114Z,9.65
2017-11-16T12:33:45.292Z,9.65
2017-11-16T12:36:13.408Z,10.13
2017-11-16T12:38:41.654Z,10.40
2017-11-16T12:41:09.667Z,11.00
2017-11-16T12:43:37.771Z,10.02
2017-11-16T12:46:05.785Z,9.15
2017-11-16T12:48:33.826Z,9.75
2017-11-16T12:51:01.900Z,10.10
2017-11-16T12:53:30.094Z,10.63
2017-11-16T12:55:58.054Z,10.70
2017-11-16T12:58:26.048Z,10.68
2017-11-16T13:00:54.034Z,10.52
2017-11-16T13:03:23.270Z,10.07
2017-11-16T13:05:51.222Z,10.45
2017-11-16T13:08:19.257Z,10.20
2017-11-16T13:10:49.602Z,10.10
2017-11-16T13:13:17.665Z,11.07
2017-11-16T13:15:45.638Z,10.98
2017-11-16T13:18:13.853Z,10.15
2017-11-16T13:20:41.771Z,11.18
2017-11-16T13:23:09.813Z,11.55
2017-11-16T13:25:37.758Z,11.20
2017-11-16T13:28:05.818Z,10.57
2017-11-16T13:30:33.878Z,10.15
2017-11-16T13:33:01.901Z,11.70
2017-11-16T13:35:30.019Z,10.98
2017-11-16T13:37:57.973Z,10.70
2017-11-16T13:40:25.981Z,10.15
2017-11-16T13:42:53.913Z,11.12
2017-11-16T13:45:21.997Z,11.52
2017-11-16T13:47:49.911Z,10.60
2017-11-16T13:50:17.841Z,10.48
2017-11-16T13:52:45.871Z,10.40
2017-11-16T13:55:13.858Z,11.23
2017-11-16T13:57:41.768Z,10.00
2017-11-16T14:00:09.897Z,11.25
2017-11-16T14:02:41.989Z,11.05
2017-11-16T14:05:10.023Z,10.82
2017-11-16T14:07:39.051Z,10.45
2017-11-16T14:10:07.100Z,11.00
2017-11-16T14:12:39.941Z,11.68
2017-11-16T14:15:08.720Z,10.80
2017-11-16T14:17:36.769Z,10.75
2017-11-16T14:20:04.778Z,11.30
2017-11-16T14:22:32.940Z,12.30
2017-11-16T14:25:00.930Z,10.32
2017-11-16T14:27:28.870Z,10.57
2017-11-16T14:29:56.792Z,11.02
2017-11-16T14:32:24.752Z,9.50
2017-11-16T14:34:52.692Z,10.85
2017-11-16T14:37:20.733Z,9.55
2017-11-16T14:39:48.685Z,9.93
2017-11-16T14:42:17.622Z,10.38
2017-11-16T14:44:45.587Z,9.85
2017-11-16T14:47:13.552Z,10.73
2017-11-16T14:49:41.483Z,10.25
2017-11-16T14:52:09.575Z,10.13
2017-11-16T14:54:37.487Z,10.82
2017-11-16T14:57:05.460Z,11.48
2017-11-16T14:59:33.394Z,10.70
2017-11-16T15:02:01.383Z,10.95
2017-11-16T15:04:29.353Z,11.07
2017-11-16T15:06:57.326Z,9.82
2017-11-16T15:09:25.284Z,11.55
2017-11-16T15:11:53.246Z,10.50
2017-11-16T15:14:21.177Z,10.40
2017-11-16T15:16:49.159Z,11.52
2017-11-16T15:19:17.343Z,10.63
2017-11-16T15:21:45.314Z,12.80
2017-11-16T15:24:13.234Z,11.77
2017-11-16T15:26:41.229Z,10.73
2017-11-16T15:29:09.195Z,11.80
2017-11-16T15:31:37.188Z,12.57
2017-11-16T15:34:05.121Z,10.48
2017-11-16T15:36:33.050Z,10.82
2017-11-16T15:39:01.033Z,11.10
2017-11-16T15:41:28.953Z,11.57
2017-11-16T15:44:05.472Z,11.65
2017-11-16T15:46:33.398Z,11.85
2017-11-16T15:49:01.359Z,11.73
2017-11-16T15:51:29.312Z,10.98
2017-11-16T15:53:57.277Z,10.68
2017-11-16T15:56:25.184Z,10.82
2017-11-16T15:58:53.908Z,11.25
2017-11-16T16:01:21.904Z,11.43
2017-11-16T16:03:49.875Z,11.73
2017-11-16T16:06:17.768Z,11.10
2017-11-16T16:08:45.758Z,13.60
2017-11-16T16:11:13.714Z,13.38
2017-11-16T16:13:41.799Z,13.10
2017-11-16T16:16:10.475Z,13.20
2017-11-16T16:18:38.427Z,12.37
2017-11-16T16:21:06.338Z,13.25
2017-11-16T16:23:34.286Z,14.00
2017-11-16T16:26:02.969Z,13.32
2017-11-16T16:28:31.691Z,13.23
2017-11-16T16:30:59.632Z,15.50
2017-11-16T16:33:27.649Z,13.57
2017-11-16T16:35:55.563Z,13.10
2017-11-16T16:38:23.544Z,13.20
2017-11-16T16:40:51.481Z,13.93
2017-11-16T16:43:19.567Z,12.75
2017-11-16T16:45:47.491Z,15.77
2017-11-16T16:48:15.512Z,13.50
2017-11-16T16:50:43.466Z,15.38
2017-11-16T16:53:11.472Z,13.32
2017-11-16T16:55:40.250Z,13.80
2017-11-16T16:58:08.181Z,13.85
2017-11-16T17:00:36.186Z,12.20
2017-11-16T17:03:04.973Z,12.98
2017-11-16T17:05:32.927Z,11.77
2017-11-16T17:08:00.844Z,12.30
2017-11-16T17:10:28.817Z,13.45
2017-11-16T17:12:58.829Z,11.98
2017-11-16T17:15:26.854Z,13.73
2017-11-16T17:17:54.952Z,13.82
2017-11-16T17:20:23.065Z,13.25
2017-11-16T17:22:50.972Z,11.88
2017-11-16T17:25:18.949Z,13.10
2017-11-16T17:27:46.859Z,11.32
2017-11-16T17:30:15.031Z,15.30
2017-11-16T17:32:42.978Z,12.82
2017-11-16T17:35:11.733Z,19.92
2017-11-16T17:37:39.686Z,14.50
2017-11-16T17:40:07.746Z,13.60
2017-11-16T17:42:35.913Z,12.63
2017-11-16T17:45:03.951Z,17.30
2017-11-16T17:47:31.872Z,13.02
2017-11-16T17:49:59.820Z,18.23
2017-11-16T17:52:27.736Z,16.60
2017-11-16T17:54:57.800Z,13.13
2017-11-16T17:57:25.886Z,21.85
2017-11-16T17:59:53.925Z,14.50
2017-11-16T18:02:24.263Z,19.30
2017-11-16T18:04:52.235Z,12.85
2017-11-16T18:07:20.968Z,10.80
2017-11-16T18:09:48.988Z,12.43
2017-11-16T18:12:18.960Z,11.75
2017-11-16T18:14:46.883Z,12.18
2017-11-16T18:17:14.879Z,12.90
2017-11-16T18:19:42.959Z,12.75
2017-11-16T18:22:10.922Z,12.15
2017-11-16T18:24:38.833Z,11.90
2017-11-16T18:27:06.802Z,13.05
2017-11-16T18:29:34.809Z,13.43
2017-11-16T18:32:04.769Z,13.05
2017-11-16T18:34:32.769Z,16.85
2017-11-16T18:37:08.194Z,18.12
2017-11-16T18:39:36.679Z,15.93
2017-11-16T18:42:04.843Z,13.40
2017-11-16T18:44:32.946Z,13.60
2017-11-16T18:47:03.730Z,14.75
2017-11-16T18:49:31.758Z,13.88
2017-11-16T18:52:00.707Z,14.10
2017-11-16T18:54:28.857Z,12.95
2017-11-16T18:56:57.008Z,14.38
2017-11-16T18:59:24.945Z,14.75
2017-11-16T19:01:53.055Z,13.82
2017-11-16T19:04:20.973Z,13.73
2017-11-16T19:06:50.520Z,14.70
2017-11-16T19:09:18.468Z,12.48
2017-11-16T19:11:47.911Z,12.85
2017-11-16T19:14:16.837Z,12.77
2017-11-16T19:16:44.767Z,14.25
2017-11-16T19:19:13.573Z,12.63
2017-11-16T19:21:41.573Z,12.65
2017-11-16T19:24:09.607Z,13.00
2017-11-16T19:26:38.334Z,12.60
2017-11-16T19:29:06.320Z,14.57
2017-11-16T19:31:34.339Z,14.32
2017-11-16T19:34:03.813Z,12.37
2017-11-16T19:36:32.204Z,14.02
2017-11-16T19:39:00.713Z,12.27
2017-11-16T19:41:30.368Z,14.68
2017-11-16T19:43:59.486Z,11.93
2017-11-16T19:46:27.773Z,12.90
2017-11-16T19:48:56.403Z,13.25
2017-11-16T19:51:24.815Z,12.60
2017-11-16T19:53:53.544Z,12.15
2017-11-16T19:56:22.072Z,13.25
2017-11-16T19:58:50.870Z,14.35
2017-11-16T20:01:19.282Z,13.85
2017-11-16T20:03:48.374Z,12.23
2017-11-16T20:06:16.935Z,12.95
2017-11-16T20:08:46.348Z,12.70
2017-11-16T20:11:15.049Z,13.88
2017-11-16T20:13:44.185Z,12.20
2017-11-16T20:16:12.786Z,12.55
2017-11-16T20:18:41.213Z,14.27
2017-11-16T20:21:10.311Z,14.63
2017-11-16T20:23:39.194Z,13.25
2017-11-16T20:26:07.208Z,15.68
2017-11-16T20:28:37.022Z,12.95
2017-11-16T20:31:05.965Z,13.65
2017-11-16T20:33:34.307Z,13.70
2017-11-16T20:36:03.072Z,14.73
2017-11-16T20:41:44.767Z,13.38
2017-11-16T20:44:16.583Z,13.55
2017-11-16T20:46:51.699Z,13.65
2017-11-16T20:49:25.196Z,15.93
2017-11-16T20:52:05.253Z,14.82
2017-11-16T20:54:34.284Z,15.48
2017-11-16T20:57:24.189Z,15.02
2017-11-16T20:59:52.920Z,15.25
2017-11-16T21:02:21.926Z,14.32
2017-11-16T21:04:52.451Z,15.20
2017-11-16T21:07:36.764Z,14.90
2017-11-16T21:10:07.321Z,13.43
2017-11-16T21:12:36.377Z,13.45
2017-11-16T21:15:47.961Z,14.05
2017-11-16T21:18:32.046Z,16.25
2017-11-16T21:21:05.093Z,14.50
2017-11-16T21:23:33.216Z,15.45
2017-11-16T21:32:09.807Z,13.60
2017-11-16T21:40:49.862Z,14.80
2017-11-16T21:43:27.995Z,13.85
2017-11-16T21:45:56.425Z,13.55
2017-11-16T21:48:24.731Z,15.30
2017-11-16T21:50:53.886Z,14.23
2017-11-16T21:53:28.184Z,14.00
2017-11-16T21:56:06.998Z,14.68
2017-11-16T21:58:35.248Z,16.12
2017-11-16T22:01:04.453Z,15.80
2017-11-16T22:03:32.679Z,16.65
2017-11-16T22:08:53.302Z,15.68
2017-11-16T22:14:45.589Z,16.10
2017-11-16T22:19:48.572Z,15.50
2017-11-16T22:22:16.715Z,15.23
2017-11-16T22:24:45.533Z,16.00
2017-11-16T22:27:13.901Z,16.80
2017-11-16T22:29:41.935Z,16.90
2017-11-16T22:32:19.978Z,18.23
2017-11-16T22:34:49.010Z,16.55
2017-11-16T22:37:17.432Z,16.55
2017-11-16T22:39:45.845Z,16.98
2017-11-16T22:42:13.908Z,17.10
2017-11-16T22:44:42.177Z,16.50
2017-11-16T22:47:10.576Z,17.10
2017-11-16T22:49:38.869Z,16.55
2017-11-16T22:52:08.034Z,16.50
2017-11-16T22:54:36.263Z,16.25
2017-11-16T22:57:04.599Z,16.42
2017-11-16T22:59:32.871Z,16.92
2017-11-16T23:02:01.268Z,15.57
2017-11-16T23:04:29.416Z,17.17
2017-11-16T23:06:57.766Z,15.73
2017-11-16T23:09:26.135Z,16.55
2017-11-16T23:11:54.361Z,15.57
2017-11-16T23:14:22.683Z,15.05
2017-11-16T23:16:51.670Z,14.68
2017-11-16T23:19:20.165Z,18.30
2017-11-16T23:21:50.664Z,16.12
2017-11-16T23:24:19.115Z,14.73
2017-11-16T23:26:52.554Z,16.48
2017-11-16T23:29:20.943Z,15.07
2017-11-16T23:31:49.606Z,14.77
2017-11-16T23:34:17.963Z,13.70
2017-11-16T23:36:46.383Z,14.43
2017-11-16T23:39:15.589Z,14.00
2017-11-16T23:41:44.090Z,16.30
2017-11-16T23:44:12.479Z,14.82
2017-11-16T23:46:40.889Z,14.98
2017-11-16T23:49:09.293Z,16.15
2017-11-16T23:51:38.481Z,13.62
2017-11-16T23:54:06.996Z,16.33
2017-11-16T23:56:36.224Z,15.27
2017-11-16T23:59:04.398Z,14.18
